Time;durP1;ratioP1;P1;durP2;ratioP2;P2;SDS_P1;SDS_P2;PMS_P1;PMS_P2;Temp;Humidity;BMP_temperature;BMP_pressure;BME280_temperature;BME280_humidity;BME280_pressure;Samples;Min_cycle;Max_cycle;Signal;HPM_P1;HPM_P2
2022/03/21 00:00:46;;;;;;;12.27;4.35;;;;;;;8.32;67.05;101561.50;5037068;28;20112;-79
2022/03/21 00:03:14;;;;;;;13.32;5.07;;;;;;;8.32;67.37;101562.34;5037912;28;20037;-78
2022/03/21 00:05:40;;;;;;;15.15;5.43;;;;;;;8.29;68.96;101557.28;5037462;28;20453;-78
2022/03/21 00:08:05;;;;;;;10.43;4.80;;;;;;;8.35;67.85;101566.56;5037337;28;20078;-78
2022/03/21 00:10:34;;;;;;;14.50;5.00;;;;;;;8.17;68.93;101563.09;5036030;28;20044;-78
2022/03/21 00:13:00;;;;;;;16.15;5.97;;;;;;;8.26;68.70;101579.06;5037193;28;20091;-78
2022/03/21 00:15:27;;;;;;;11.10;4.57;;;;;;;8.19;69.42;101580.75;5036280;28;20068;-78
2022/03/21 00:17:53;;;;;;;11.68;4.93;;;;;;;8.11;69.49;101577.16;5038118;28;20025;-79
2022/03/21 00:20:18;;;;;;;12.63;5.10;;;;;;;7.98;69.14;101567.72;5039723;28;20036;-79
2022/03/21 00:22:44;;;;;;;9.85;4.40;;;;;;;8.13;70.03;101576.00;5038518;28;20112;-79
2022/03/21 00:25:09;;;;;;;9.93;4.43;;;;;;;8.27;69.47;101582.59;5036828;28;20042;-79
2022/03/21 00:27:36;;;;;;;10.18;4.03;;;;;;;8.12;68.37;101584.22;5038948;28;20033;-79
2022/03/21 00:30:04;;;;;;;11.07;4.28;;;;;;;8.02;67.59;101578.97;5038640;28;20029;-80
2022/03/21 00:32:29;;;;;;;9.40;4.15;;;;;;;8.05;66.58;101577.81;5038251;28;20030;-80
2022/03/21 00:34:54;;;;;;;13.98;4.70;;;;;;;7.99;67.24;101592.72;5037713;28;20029;-79
2022/03/21 00:37:23;;;;;;;12.07;4.47;;;;;;;7.95;67.23;101589.50;5039279;28;20074;-79
2022/03/21 00:39:48;;;;;;;9.88;4.15;;;;;;;7.91;66.10;101593.50;5022364;28;20026;-80
2022/03/21 00:42:14;;;;;;;12.05;4.80;;;;;;;7.93;67.15;101594.19;5041889;28;20033;-79
2022/03/21 00:44:39;;;;;;;11.52;4.43;;;;;;;8.09;69.14;101581.84;5042644;28;20037;-80
2022/03/21 00:47:05;;;;;;;9.37;4.17;;;;;;;8.12;68.27;101571.63;5042723;28;20091;-79
2022/03/21 00:49:30;;;;;;;10.02;4.43;;;;;;;8.36;67.83;101579.00;5044565;28;20091;-79
2022/03/21 00:51:56;;;;;;;9.93;4.30;;;;;;;8.40;67.46;101583.03;5041323;28;20064;-79
2022/03/21 00:54:21;;;;;;;9.57;4.22;;;;;;;8.35;67.68;101588.91;5041201;28;20025;-79
2022/03/21 00:56:46;;;;;;;11.43;3.77;;;;;;;8.25;66.57;101588.13;5041422;28;20052;-79
2022/03/21 00:59:12;;;;;;;9.87;4.17;;;;;;;8.23;67.00;101597.38;5040271;28;20256;-79
2022/03/21 01:01:37;;;;;;;11.10;4.80;;;;;;;8.21;67.08;101594.84;5040777;28;20029;-79
2022/03/21 01:04:03;;;;;;;10.55;4.65;;;;;;;8.24;66.69;101591.81;5040986;28;20036;-79
2022/03/21 01:06:29;;;;;;;;;;;;;;;8.27;67.03;101596.88;5040288;28;20046;-79
2022/03/21 01:08:54;;;;;;;8.68;3.65;;;;;;;8.19;67.03;101599.53;5041166;28;19967;-79
2022/03/21 01:11:22;;;;;;;11.45;4.35;;;;;;;8.12;67.43;101597.63;5040521;28;20033;-79
2022/03/21 01:13:49;;;;;;;8.45;3.47;;;;;;;8.12;67.69;101585.06;5041204;28;20453;-79
2022/03/21 01:16:15;;;;;;;13.20;4.55;;;;;;;8.13;67.34;101592.09;5039687;28;20036;-79
2022/03/21 01:18:41;;;;;;;10.40;3.85;;;;;;;8.17;67.52;101595.31;5036289;28;20395;-79
2022/03/21 01:21:07;;;;;;;10.23;3.58;;;;;;;8.32;66.92;101583.00;5040272;28;20116;-80
2022/03/21 01:23:32;;;;;;;8.93;3.47;;;;;;;8.26;67.51;101588.97;5040232;28;20034;-79
2022/03/21 01:25:57;;;;;;;10.00;3.60;;;;;;;8.21;67.85;101596.69;5039170;28;20627;-79
2022/03/21 01:28:22;;;;;;;11.80;3.27;;;;;;;8.39;67.53;101583.19;5037857;28;20040;-79
2022/03/21 01:30:48;;;;;;;9.67;3.93;;;;;;;8.31;67.41;101584.81;5037694;28;20040;-79
2022/03/21 01:33:13;;;;;;;9.27;3.57;;;;;;;8.28;68.19;101592.34;5037808;28;20033;-79
2022/03/21 01:35:38;;;;;;;11.77;4.70;;;;;;;8.27;68.41;101601.41;5038796;28;20025;-79
2022/03/21 01:38:04;;;;;;;11.07;4.13;;;;;;;8.29;68.34;101594.03;5037188;28;20037;-79
2022/03/21 01:40:29;;;;;;;9.90;4.60;;;;;;;8.22;68.95;101593.84;5035507;28;20029;-79
2022/03/21 01:42:54;;;;;;;11.82;4.72;;;;;;;8.31;68.78;101603.59;5036278;28;20057;-79
2022/03/21 01:45:20;;;;;;;11.53;5.23;;;;;;;8.02;70.97;101598.63;5036750;28;20029;-79
2022/03/21 01:47:46;;;;;;;16.83;5.30;;;;;;;7.92;72.31;101597.88;5033706;28;20079;-79
2022/03/21 01:50:12;;;;;;;;;;;;;;;7.60;73.79;101593.13;5036766;28;20264;-79
2022/03/21 01:52:38;;;;;;;11.05;4.90;;;;;;;7.54;74.80;101595.59;5034863;28;19931;-79
2022/03/21 01:57:51;;;;;;;13.65;6.28;;;;;;;7.68;75.08;101595.06;5034571;28;20068;-79
2022/03/21 02:00:16;;;;;;;11.77;5.32;;;;;;;7.52;75.55;101590.41;5035073;28;20029;-79
2022/03/21 02:02:42;;;;;;;13.97;6.20;;;;;;;7.52;76.10;101593.09;5034709;28;20038;-79
2022/03/21 02:05:09;;;;;;;15.88;5.93;;;;;;;7.64;75.79;101593.69;5035205;28;20030;-79
2022/03/21 02:07:34;;;;;;;;;;;;;;;7.56;75.58;101589.09;5035702;28;20045;-79
2022/03/21 02:10:02;;;;;;;15.40;6.00;;;;;;;7.77;74.87;101586.03;5035009;28;19913;-78
2022/03/21 02:12:28;;;;;;;14.25;6.38;;;;;;;7.66;74.81;101584.47;5035044;28;20030;-79
2022/03/21 02:14:54;;;;;;;16.33;5.93;;;;;;;7.57;75.30;101581.88;5034842;28;20116;-78
2022/03/21 02:17:22;;;;;;;12.55;6.38;;;;;;;7.50;75.50;101578.16;5034643;28;20065;-79
2022/03/21 02:19:48;;;;;;;15.55;6.15;;;;;;;7.58;75.61;101580.88;5017376;28;20092;-79
2022/03/21 02:22:38;;;;;;;16.83;6.60;;;;;;;7.86;73.33;101571.69;5034925;28;20029;-79
2022/03/21 02:25:22;;;;;;;12.27;5.50;;;;;;;7.75;74.29;101579.16;5017645;28;20484;-79
2022/03/21 02:27:49;;;;;;;14.23;5.80;;;;;;;7.81;73.87;101584.72;5034573;28;20495;-78
2022/03/21 02:30:15;;;;;;;14.68;5.78;;;;;;;8.05;72.86;101573.31;5033859;28;20075;-79
2022/03/21 02:32:41;;;;;;;15.55;6.15;;;;;;;7.92;73.33;101573.72;5034518;28;20038;-79
2022/03/21 02:35:09;;;;;;;14.38;5.05;;;;;;;7.94;73.27;101576.25;5035025;28;20077;-79
2022/03/21 02:37:35;;;;;;;14.40;6.28;;;;;;;7.76;73.58;101580.81;5034901;28;20144;-79
2022/03/21 02:40:01;;;;;;;14.07;5.20;;;;;;;7.80;73.85;101582.19;5035258;28;20045;-79
2022/03/21 02:42:27;;;;;;;17.60;6.07;;;;;;;7.77;73.88;101585.19;5035959;28;20037;-79
2022/03/21 02:44:52;;;;;;;13.37;5.47;;;;;;;7.69;73.34;101582.47;5035697;28;20522;-79
2022/03/21 02:47:17;;;;;;;15.73;6.83;;;;;;;7.71;72.93;101581.28;5036862;28;20642;-79
2022/03/21 02:49:43;;;;;;;14.03;5.03;;;;;;;7.83;71.85;101573.84;5035118;28;20037;-79
2022/03/21 02:52:10;;;;;;;13.70;5.63;;;;;;;7.79;72.16;101564.41;5035454;28;20104;-79
2022/03/21 02:54:35;;;;;;;14.25;4.82;;;;;;;7.79;72.30;101578.69;5035720;28;20275;-79
2022/03/21 02:57:01;;;;;;;12.10;5.23;;;;;;;7.77;71.82;101579.84;5034822;28;20029;-79
2022/03/21 02:59:27;;;;;;;13.02;5.35;;;;;;;7.76;71.05;101581.66;5036405;28;20468;-79
2022/03/21 03:01:53;;;;;;;14.68;5.68;;;;;;;7.74;70.86;101572.09;5038655;28;20112;-79
2022/03/21 03:04:23;;;;;;;15.38;6.40;;;;;;;7.73;70.96;101573.94;5038374;28;20455;-79
2022/03/21 03:06:49;;;;;;;14.35;5.00;;;;;;;7.85;70.93;101577.22;5038565;28;20128;-80
2022/03/21 03:09:15;;;;;;;16.63;6.05;;;;;;;7.82;70.80;101575.69;5038364;28;20072;-79
2022/03/21 03:11:40;;;;;;;16.13;5.80;;;;;;;7.69;71.16;101572.59;5039869;28;20048;-79
2022/03/21 03:14:06;;;;;;;12.63;4.87;;;;;;;7.75;71.05;101582.66;5037344;28;20488;-79
2022/03/21 03:16:34;;;;;;;13.68;5.88;;;;;;;7.65;71.28;101576.59;5038265;28;20108;-79
2022/03/21 03:18:59;;;;;;;13.60;5.35;;;;;;;7.66;71.27;101575.59;5036893;28;20041;-79
2022/03/21 03:21:26;;;;;;;13.27;5.03;;;;;;;7.63;71.60;101576.75;5038881;28;20033;-79
2022/03/21 03:23:52;;;;;;;10.60;4.75;;;;;;;7.57;71.96;101577.34;5038277;28;20029;-79
2022/03/21 03:26:18;;;;;;;10.10;4.25;;;;;;;7.68;71.85;101581.63;5038351;28;20028;-79
2022/03/21 03:28:45;;;;;;;13.50;5.43;;;;;;;7.64;71.90;101577.59;5041540;28;20511;-80
2022/03/21 03:31:12;;;;;;;12.43;5.22;;;;;;;7.59;72.11;101580.72;5042105;28;20029;-79
2022/03/21 03:33:38;;;;;;;14.43;5.22;;;;;;;7.61;72.20;101577.88;5040894;28;20037;-78
2022/03/21 03:36:04;;;;;;;18.13;5.95;;;;;;;7.60;72.45;101585.09;5039465;28;20025;-79
2022/03/21 03:38:29;;;;;;;12.13;5.20;;;;;;;7.67;71.92;101579.94;5041872;28;20052;-79
2022/03/21 03:40:55;;;;;;;12.80;5.40;;;;;;;7.62;72.17;101575.06;5039927;28;20038;-79
2022/03/21 03:43:20;;;;;;;11.33;4.97;;;;;;;7.60;72.63;101579.72;5038565;28;20064;-79
2022/03/21 03:45:48;;;;;;;12.55;5.57;;;;;;;7.52;72.57;101578.84;5039740;28;20376;-79
2022/03/21 03:48:14;;;;;;;13.32;5.35;;;;;;;7.49;72.75;101584.53;5043310;28;20100;-79
2022/03/21 03:50:40;;;;;;;13.65;5.72;;;;;;;7.44;72.57;101584.13;5042593;28;20514;-79
2022/03/21 03:53:05;;;;;;;12.98;5.18;;;;;;;7.35;73.29;101588.56;5042590;28;20033;-79
2022/03/21 03:55:30;;;;;;;12.00;5.68;;;;;;;7.35;73.58;101577.84;5042388;28;20044;-79
2022/03/21 03:57:56;;;;;;;12.30;5.47;;;;;;;7.30;73.50;101581.03;5037962;28;20437;-79
2022/03/21 04:00:21;;;;;;;18.77;7.37;;;;;;;7.21;73.90;101579.25;5041654;28;20315;-79
2022/03/21 04:05:31;;;;;;;15.05;5.30;;;;;;;7.13;74.70;101568.47;5039173;28;20447;-79
2022/03/21 04:07:56;;;;;;;13.60;5.57;;;;;;;7.11;74.89;101570.47;5039091;28;20049;-79
2022/03/21 04:10:22;;;;;;;16.65;6.32;;;;;;;7.21;75.01;101578.41;5038867;28;20028;-79
2022/03/21 04:12:51;;;;;;;16.67;6.03;;;;;;;7.17;74.91;101577.03;5041199;28;20079;-80
2022/03/21 04:15:18;;;;;;;16.65;6.00;;;;;;;7.17;74.66;101583.25;5039151;28;20029;-79
2022/03/21 04:17:43;;;;;;;18.00;7.00;;;;;;;7.22;74.50;101580.09;5039061;28;20061;-79
2022/03/21 04:20:09;;;;;;;13.43;5.85;;;;;;;7.21;74.66;101586.47;5040081;28;20036;-79
2022/03/21 04:22:35;;;;;;;15.77;6.47;;;;;;;7.07;75.34;101585.16;5039223;28;20040;-80
2022/03/21 04:25:03;;;;;;;17.10;6.97;;;;;;;7.00;75.51;101594.81;5041191;28;20391;-79
2022/03/21 04:27:28;;;;;;;16.52;6.18;;;;;;;6.93;76.33;101591.91;5040944;28;20463;-79
2022/03/21 04:29:53;;;;;;;17.67;6.00;;;;;;;7.00;76.20;101592.13;5039776;28;20048;-79
2022/03/21 04:32:19;;;;;;;15.93;6.32;;;;;;;7.03;76.41;101591.81;5039709;28;20295;-79
2022/03/21 04:34:44;;;;;;;19.23;5.83;;;;;;;7.10;76.19;101594.75;5037563;28;20033;-79
2022/03/21 04:37:10;;;;;;;15.13;6.67;;;;;;;7.05;75.86;101603.25;5037917;28;20513;-79
2022/03/21 04:39:35;;;;;;;14.63;5.82;;;;;;;7.18;76.24;101595.66;5036902;28;20125;-79
2022/03/21 04:42:01;;;;;;;13.15;6.20;;;;;;;7.13;76.33;101605.16;5039021;28;20044;-79
2022/03/21 04:44:26;;;;;;;14.48;6.28;;;;;;;7.17;76.17;101601.16;5038572;28;20056;-79
2022/03/21 04:46:52;;;;;;;15.00;6.00;;;;;;;7.21;76.15;101602.53;5040683;28;20030;-80
2022/03/21 04:49:17;;;;;;;19.25;6.85;;;;;;;7.12;76.63;101600.81;5037787;28;20022;-78
2022/03/21 04:51:43;;;;;;;17.05;6.65;;;;;;;7.09;76.90;101601.09;5036834;28;20096;-78
2022/03/21 04:54:08;;;;;;;14.43;6.45;;;;;;;7.09;76.61;101609.16;5037273;28;20029;-79
2022/03/21 04:56:33;;;;;;;15.27;6.73;;;;;;;7.08;76.50;101612.81;5038925;28;20037;-78
2022/03/21 04:58:59;;;;;;;20.77;6.30;;;;;;;7.08;76.73;101619.03;5038723;28;20028;-79
2022/03/21 05:01:24;;;;;;;15.80;7.00;;;;;;;7.09;76.58;101617.19;5036827;28;20037;-79
2022/03/21 05:03:50;;;;;;;14.45;6.40;;;;;;;7.09;77.13;101623.38;5040253;28;20257;-81
2022/03/21 05:06:16;;;;;;;;;;;;;;;7.19;76.63;101623.28;5045057;28;20056;-81
2022/03/21 05:08:42;;;;;;;18.33;7.03;;;;;;;7.17;76.81;101617.25;5044941;28;19913;-80
2022/03/21 05:11:07;;;;;;;16.15;7.03;;;;;;;7.17;76.51;101625.28;5046104;28;20399;-81
2022/03/21 05:13:33;;;;;;;13.75;6.90;;;;;;;7.19;76.47;101625.97;5037351;28;20041;-78
2022/03/21 05:15:58;;;;;;;16.43;6.43;;;;;;;7.21;76.58;101630.19;5035433;28;20033;-78
2022/03/21 05:18:25;;;;;;;17.80;7.25;;;;;;;7.21;77.04;101629.34;5034617;28;20490;-78
2022/03/21 05:20:50;;;;;;;19.40;6.82;;;;;;;7.22;77.30;101626.50;5017818;28;20071;-78
2022/03/21 05:31:34;;;;;;;15.75;7.50;;;;;;;7.39;75.92;101634.69;5045347;28;20048;-80
2022/03/21 05:36:44;;;;;;;17.25;7.32;;;;;;;7.25;76.13;101631.56;5042473;28;20089;-79
2022/03/21 05:39:09;;;;;;;20.93;7.97;;;;;;;7.32;76.52;101629.13;5043722;28;20033;-80
2022/03/21 05:41:35;;;;;;;14.17;6.37;;;;;;;7.32;76.06;101629.97;5043484;28;20041;-79
2022/03/21 05:44:00;;;;;;;14.70;6.13;;;;;;;7.26;76.60;101637.78;5045486;28;20068;-79
2022/03/21 05:46:26;;;;;;;13.75;5.80;;;;;;;7.25;76.89;101634.25;5045851;28;20145;-79
2022/03/21 05:48:58;;;;;;;19.67;6.90;;;;;;;7.11;77.47;101639.31;5041793;28;20081;-79
2022/03/21 05:51:34;;;;;;;16.85;6.30;;;;;;;7.15;77.41;101638.03;5041306;28;20134;-79
2022/03/21 05:54:03;;;;;;;16.25;6.93;;;;;;;7.12;77.79;101639.16;5043308;28;20040;-79
2022/03/21 05:56:29;;;;;;;19.10;6.78;;;;;;;7.31;77.23;101649.75;5045544;28;20025;-78
2022/03/21 05:58:55;;;;;;;17.48;7.03;;;;;;;7.31;77.05;101644.38;5040673;28;20423;-78
2022/03/21 06:01:24;;;;;;;14.13;6.53;;;;;;;7.14;77.21;101642.53;5041337;28;20229;-79
2022/03/21 06:03:54;;;;;;;17.60;7.50;;;;;;;7.23;77.65;101655.00;5042965;28;20022;-79
2022/03/21 06:06:21;;;;;;;17.23;7.28;;;;;;;7.11;78.11;101648.19;5043293;28;20042;-79
2022/03/21 06:08:48;;;;;;;14.60;6.30;;;;;;;7.14;78.44;101655.09;5041641;28;20083;-78
2022/03/21 06:11:13;;;;;;;17.88;7.25;;;;;;;7.06;78.74;101657.69;5041414;28;20056;-78
2022/03/21 06:13:42;;;;;;;17.55;7.25;;;;;;;6.95;78.99;101658.75;5040242;28;20465;-79
2022/03/21 06:16:08;;;;;;;20.08;7.75;;;;;;;6.93;78.41;101661.59;5038002;28;20466;-79
2022/03/21 06:18:35;;;;;;;17.80;7.20;;;;;;;6.83;79.31;101658.09;5023165;28;20048;-80
2022/03/21 06:21:01;;;;;;;15.25;6.80;;;;;;;6.88;79.19;101666.53;5042943;28;20085;-80
2022/03/21 06:23:28;;;;;;;17.13;6.25;;;;;;;7.02;79.18;101667.84;5039003;28;20097;-79
2022/03/21 06:25:54;;;;;;;15.30;6.30;;;;;;;7.02;78.76;101675.06;5041824;28;20033;-79
2022/03/21 06:28:20;;;;;;;;;;;;;;;6.95;79.24;101670.31;5040803;28;20029;-79
2022/03/21 06:30:46;;;;;;;21.40;7.85;;;;;;;6.96;78.76;101672.00;5039831;28;20419;-80
2022/03/21 06:33:11;;;;;;;16.83;7.43;;;;;;;6.94;78.51;101682.03;5038333;28;20045;-79
2022/03/21 06:35:36;;;;;;;17.07;7.53;;;;;;;7.14;78.74;101676.53;5043490;28;20072;-79
2022/03/21 06:38:02;;;;;;;22.00;8.37;;;;;;;6.95;78.29;101680.19;5042564;28;20582;-79
2022/03/21 06:40:27;;;;;;;18.80;7.67;;;;;;;7.06;79.01;101685.31;5042898;28;20087;-80
2022/03/21 06:42:53;;;;;;;15.73;6.30;;;;;;;7.03;78.69;101685.63;5044129;28;20021;-79
2022/03/21 06:45:18;;;;;;;17.73;8.18;;;;;;;7.06;78.64;101687.16;5045610;28;20039;-79
2022/03/21 06:47:44;;;;;;;17.63;7.03;;;;;;;7.06;79.05;101685.31;5047746;28;20168;-80
2022/03/21 06:50:10;;;;;;;16.48;6.75;;;;;;;7.12;78.45;101687.41;5047591;28;20029;-80
2022/03/21 06:52:39;;;;;;;;;;;;;;;7.30;77.20;101690.09;5048250;28;20041;-79
2022/03/21 06:55:06;;;;;;;14.00;6.40;;;;;;;7.23;77.83;101686.34;5048395;28;19909;-79
2022/03/21 06:57:31;;;;;;;16.25;6.97;;;;;;;7.36;77.67;101681.44;5048757;28;20034;-79
2022/03/21 06:59:57;;;;;;;18.90;7.40;;;;;;;7.44;76.97;101684.19;5050064;28;20107;-79
2022/03/21 07:02:23;;;;;;;22.07;7.77;;;;;;;7.37;77.31;101693.84;5029145;28;20029;-79
2022/03/21 07:04:49;;;;;;;19.38;7.80;;;;;;;7.39;76.59;101694.53;5049004;28;20287;-78
2022/03/21 07:07:14;;;;;;;15.57;7.15;;;;;;;7.56;76.30;101700.88;5047785;28;20108;-79
2022/03/21 07:09:39;;;;;;;17.13;7.53;;;;;;;7.75;74.74;101697.19;5046068;28;20029;-79
2022/03/21 07:12:05;;;;;;;17.20;7.27;;;;;;;7.87;73.93;101702.19;5044809;28;20140;-78
2022/03/21 07:14:30;;;;;;;18.55;6.53;;;;;;;7.96;73.13;101700.38;5047024;28;20064;-80
2022/03/21 07:16:55;;;;;;;17.13;7.33;;;;;;;7.94;72.23;101703.22;5046392;28;20033;-79
2022/03/21 07:19:21;;;;;;;15.50;6.77;;;;;;;8.20;70.49;101705.09;5043940;28;20035;-79
2022/03/21 07:21:46;;;;;;;17.20;6.27;;;;;;;8.25;70.46;101706.28;5041387;28;20295;-79
2022/03/21 07:24:12;;;;;;;16.25;6.35;;;;;;;8.32;70.68;101707.38;5045446;28;20029;-80
2022/03/21 07:26:38;;;;;;;15.02;6.30;;;;;;;8.45;69.99;101706.94;5043003;28;20065;-79
2022/03/21 07:29:07;;;;;;;12.55;5.70;;;;;;;8.47;67.55;101702.25;5038876;28;20159;-81
2022/03/21 07:31:33;;;;;;;13.00;5.63;;;;;;;8.61;67.74;101690.88;5039898;28;20045;-80
2022/03/21 07:33:59;;;;;;;14.25;5.90;;;;;;;8.63;68.41;101690.72;5040567;28;20070;-80
2022/03/21 07:36:29;;;;;;;15.85;7.07;;;;;;;8.93;63.33;101700.09;5039588;28;20044;-79
2022/03/21 07:38:56;;;;;;;16.33;5.95;;;;;;;9.05;60.69;101701.47;5039091;28;20033;-79
2022/03/21 07:41:26;;;;;;;17.13;6.00;;;;;;;9.11;62.02;101703.53;5040391;28;20093;-79
2022/03/21 07:43:51;;;;;;;14.02;6.47;;;;;;;9.28;62.12;101707.09;5040298;28;20120;-79
2022/03/21 07:49:02;;;;;;;15.82;6.53;;;;;;;9.34;60.55;101706.41;5038196;28;20502;-79
2022/03/21 07:51:30;;;;;;;16.33;7.43;;;;;;;9.42;58.77;101710.97;5037998;28;20068;-79
2022/03/21 07:53:55;;;;;;;18.80;6.10;;;;;;;9.77;57.74;101709.81;5038342;28;20048;-79
2022/03/21 07:56:21;;;;;;;12.43;5.93;;;;;;;9.84;57.43;101703.59;5039798;28;20488;-79
2022/03/21 07:58:46;;;;;;;14.20;6.20;;;;;;;9.78;57.30;101706.97;5041330;28;20034;-78
2022/03/21 08:01:11;;;;;;;14.30;6.13;;;;;;;10.07;54.18;101701.88;5040246;28;20537;-80
2022/03/21 08:03:37;;;;;;;15.57;6.30;;;;;;;10.01;53.93;101707.13;5041906;28;20512;-80
2022/03/21 08:06:03;;;;;;;18.38;7.38;;;;;;;10.23;51.77;101709.13;5040357;28;20276;-80
2022/03/21 08:08:28;;;;;;;14.52;6.28;;;;;;;10.48;52.56;101709.06;5040804;28;20021;-80
2022/03/21 08:10:55;;;;;;;14.75;6.32;;;;;;;10.53;51.83;101712.94;5022147;28;20034;-79
2022/03/21 08:13:21;;;;;;;11.90;5.80;;;;;;;10.61;49.94;101715.59;5040476;28;20530;-78
2022/03/21 08:15:47;;;;;;;13.80;5.90;;;;;;;10.62;49.57;101711.88;5040780;28;20030;-77
2022/03/21 08:18:12;;;;;;;16.08;5.68;;;;;;;10.72;50.85;101715.22;5038011;28;20299;-78
2022/03/21 08:20:39;;;;;;;13.85;5.93;;;;;;;10.89;52.79;101713.31;5040625;28;20029;-80
2022/03/21 08:23:11;;;;;;;11.85;5.80;;;;;;;11.02;51.56;101712.72;5040464;28;20029;-77
2022/03/21 08:25:38;;;;;;;14.63;5.28;;;;;;;11.21;50.32;101717.69;5037638;28;20021;-77
2022/03/21 08:28:11;;;;;;;13.10;5.38;;;;;;;11.21;51.09;101717.69;5035907;28;20491;-79
2022/03/21 08:30:37;;;;;;;14.43;5.57;;;;;;;11.47;50.91;101718.19;5042129;28;20032;-80
2022/03/21 08:33:06;;;;;;;14.18;5.60;;;;;;;11.52;48.23;101725.75;5041178;28;20033;-80
2022/03/21 08:35:32;;;;;;;15.02;6.60;;;;;;;11.55;47.88;101716.47;5041481;28;20037;-79
2022/03/21 08:37:58;;;;;;;12.57;5.53;;;;;;;11.75;46.75;101723.06;5039935;28;20036;-78
2022/03/21 08:40:23;;;;;;;;;;;;;;;11.66;47.54;101722.25;5038596;28;20059;-80
2022/03/21 08:42:48;;;;;;;12.73;5.63;;;;;;;11.81;46.15;101725.06;5039780;28;19956;-77
2022/03/21 08:45:15;;;;;;;13.23;5.67;;;;;;;11.85;45.78;101726.38;5039343;28;20295;-79
2022/03/21 08:47:44;;;;;;;16.27;6.25;;;;;;;11.97;46.02;101730.34;5042014;28;20125;-81
2022/03/21 08:50:10;;;;;;;13.27;5.72;;;;;;;11.96;47.38;101725.13;5042591;28;20089;-80
2022/03/21 08:52:36;;;;;;;14.00;6.30;;;;;;;12.09;46.02;101731.56;5043792;28;20044;-80
2022/03/21 08:55:07;;;;;;;15.73;6.03;;;;;;;12.09;45.49;101728.88;5043082;28;20029;-78
2022/03/21 08:57:33;;;;;;;11.82;5.65;;;;;;;11.96;45.58;101720.56;5042713;28;20033;-80
2022/03/21 08:59:58;;;;;;;13.57;6.00;;;;;;;12.13;45.89;101723.94;5046218;28;20044;-81
2022/03/21 09:02:23;;;;;;;11.15;5.70;;;;;;;12.18;45.82;101720.69;5045063;28;20040;-81
2022/03/21 09:04:50;;;;;;;14.32;5.72;;;;;;;12.33;45.90;101727.81;5046617;28;20060;-81
2022/03/21 09:07:15;;;;;;;12.77;5.88;;;;;;;12.48;44.16;101725.94;5044941;28;20065;-79
2022/03/21 09:09:41;;;;;;;14.55;5.63;;;;;;;12.67;43.64;101729.13;5047347;28;20033;-80
2022/03/21 09:12:07;;;;;;;13.63;5.60;;;;;;;12.44;43.77;101727.34;5047413;28;20052;-81
2022/03/21 09:14:33;;;;;;;;;;;;;;;12.37;44.58;101720.13;5047396;28;20075;-81
2022/03/21 09:16:59;;;;;;;13.68;5.93;;;;;;;12.65;44.74;101720.34;5044636;28;19913;-81
2022/03/21 09:19:24;;;;;;;15.48;5.65;;;;;;;12.75;44.86;101723.59;5043707;28;20036;-81
2022/03/21 09:21:51;;;;;;;12.97;5.20;;;;;;;13.07;43.68;101723.22;5027025;28;20025;-78
2022/03/21 09:24:17;;;;;;;13.07;5.00;;;;;;;13.08;42.91;101719.44;5040407;28;20252;-78
2022/03/21 09:26:42;;;;;;;11.95;5.35;;;;;;;13.12;42.49;101711.78;5041669;28;20037;-80
2022/03/21 09:29:09;;;;;;;11.70;5.45;;;;;;;12.92;43.04;101714.25;5039737;28;20048;-80
2022/03/21 09:31:40;;;;;;;13.82;5.72;;;;;;;13.21;42.82;101705.28;5039937;28;20045;-78
2022/03/21 09:34:09;;;;;;;12.95;5.05;;;;;;;13.46;42.22;101713.88;5037045;28;20045;-77
2022/03/21 09:36:35;;;;;;;12.38;5.35;;;;;;;13.36;42.13;101713.34;5037575;28;20025;-76
2022/03/21 09:39:00;;;;;;;14.82;6.30;;;;;;;13.24;42.63;101704.91;5037270;28;20048;-78
2022/03/21 09:41:27;;;;;;;14.20;5.75;;;;;;;13.39;43.17;101715.69;5040128;28;20045;-77
2022/03/21 09:44:03;;;;;;;13.70;5.55;;;;;;;13.49;42.20;101710.78;5020629;28;20160;-79
2022/03/21 09:46:29;;;;;;;11.05;5.35;;;;;;;13.67;43.24;101708.47;5036811;28;20022;-79
2022/03/21 09:48:56;;;;;;;;;;;;;;;13.70;42.08;101710.78;5038244;28;20040;-78
2022/03/21 09:51:25;;;;;;;15.20;6.10;;;;;;;13.89;41.73;101702.00;5038455;28;20003;-79
2022/03/21 09:53:52;;;;;;;14.02;5.63;;;;;;;13.99;41.33;101704.38;5045753;28;20029;-80
2022/03/21 09:56:18;;;;;;;12.88;5.85;;;;;;;14.13;40.97;101711.59;5050584;28;20034;-79
2022/03/21 09:58:44;;;;;;;11.05;4.63;;;;;;;14.03;41.21;101700.22;5029213;28;20052;-81
2022/03/21 10:01:12;;;;;;;11.02;5.18;;;;;;;14.01;41.08;101704.16;5045178;28;20430;-79
2022/03/21 10:03:39;;;;;;;13.15;5.90;;;;;;;14.13;41.02;101694.47;5047010;28;20030;-79
2022/03/21 10:06:29;;;;;;;12.13;5.15;;;;;;;14.29;40.74;101696.06;5046175;28;20103;-79
2022/03/21 10:09:14;;;;;;;13.98;5.45;;;;;;;14.33;40.71;101694.63;5042132;28;20021;-79
2022/03/21 10:11:49;;;;;;;12.13;5.25;;;;;;;14.33;41.21;101698.16;5042895;28;20040;-79
2022/03/21 10:14:33;;;;;;;12.77;5.22;;;;;;;14.38;41.39;101694.84;5041064;28;20061;-79
2022/03/21 10:17:03;;;;;;;10.52;5.38;;;;;;;14.51;41.13;101695.78;5041147;28;20034;-80
2022/03/21 10:19:52;;;;;;;12.00;5.53;;;;;;;14.53;41.42;101696.44;5040636;28;20105;-79
2022/03/21 10:22:33;;;;;;;14.10;5.72;;;;;;;14.59;41.63;101694.81;5041301;28;20438;-79
2022/03/21 10:25:09;;;;;;;11.30;4.95;;;;;;;14.51;42.20;101694.97;5038099;28;20039;-78
2022/03/21 10:27:39;;;;;;;11.05;5.03;;;;;;;14.65;41.64;101694.00;5037621;28;20029;-78
2022/03/21 10:30:07;;;;;;;14.68;5.68;;;;;;;14.75;41.37;101690.91;5040663;28;20117;-79
2022/03/21 10:32:59;;;;;;;12.38;6.20;;;;;;;14.78;41.86;101690.53;5042217;28;20029;-81
2022/03/21 10:35:30;;;;;;;13.48;5.68;;;;;;;14.81;41.45;101690.97;5040261;28;20045;-80
2022/03/21 10:38:01;;;;;;;11.85;5.65;;;;;;;14.83;42.10;101694.31;5041561;28;20041;-78
2022/03/21 10:40:50;;;;;;;11.93;5.57;;;;;;;14.90;42.32;101691.59;5039375;28;20026;-79
2022/03/21 10:43:18;;;;;;;14.05;5.95;;;;;;;15.00;42.18;101700.22;5038586;28;20034;-79
2022/03/21 10:45:49;;;;;;;12.73;6.05;;;;;;;15.08;42.56;101697.31;5040049;28;20037;-79
2022/03/21 10:48:19;;;;;;;11.55;5.63;;;;;;;15.35;41.74;101698.25;5039971;28;20021;-80
2022/03/21 10:50:49;;;;;;;10.18;4.40;;;;;;;15.25;42.16;101690.47;5043050;28;20084;-80
2022/03/21 10:53:19;;;;;;;11.63;4.82;;;;;;;15.35;42.43;101686.53;5036580;28;20055;-78
2022/03/21 10:55:50;;;;;;;12.30;5.22;;;;;;;15.37;42.07;101684.47;5041521;28;20052;-79
2022/03/21 10:58:30;;;;;;;13.05;5.38;;;;;;;15.47;42.13;101688.44;5040959;28;20029;-80
2022/03/21 11:01:08;;;;;;;12.68;5.80;;;;;;;15.29;42.65;101680.06;5040663;28;20030;-80
2022/03/21 11:03:40;;;;;;;9.38;4.30;;;;;;;15.28;42.37;101689.22;5041210;28;20085;-80
2022/03/21 11:06:05;;;;;;;12.05;6.47;;;;;;;15.39;42.56;101677.78;5039141;28;20111;-79
2022/03/21 11:08:30;;;;;;;14.05;4.53;;;;;;;15.59;41.96;101680.53;5038701;28;20025;-79
2022/03/21 11:10:56;;;;;;;11.63;5.28;;;;;;;15.65;42.32;101685.16;5040074;28;20033;-79
2022/03/21 11:13:23;;;;;;;;;;;;;;;15.83;42.03;101681.81;5042029;28;20038;-81
2022/03/21 11:15:51;;;;;;;10.95;5.07;;;;;;;15.69;42.21;101670.13;5039450;28;19931;-79
2022/03/21 11:18:21;;;;;;;9.80;4.30;;;;;;;15.86;41.92;101671.38;5038661;28;20034;-79
2022/03/21 11:20:47;;;;;;;10.20;4.65;;;;;;;15.92;42.37;101675.16;5043661;28;22348;-80
2022/03/21 11:23:15;;;;;;;11.60;5.22;;;;;;;16.12;42.09;101670.50;5042547;28;20029;-78
2022/03/21 11:25:48;;;;;;;14.13;5.38;;;;;;;16.07;42.53;101673.03;5042666;28;20030;-80
2022/03/21 11:28:51;;;;;;;13.73;5.00;;;;;;;16.26;42.03;101671.34;5042391;28;20059;-78
2022/03/21 11:31:23;;;;;;;10.93;4.93;;;;;;;16.23;41.91;101675.31;5044541;28;20107;-79
2022/03/21 11:34:07;;;;;;;9.88;4.25;;;;;;;16.27;41.54;101660.25;5042816;28;20117;-79
2022/03/21 11:36:32;;;;;;;11.55;4.68;;;;;;;16.16;42.28;101669.03;5042255;28;20087;-79
2022/03/21 11:39:00;;;;;;;10.45;4.60;;;;;;;16.25;41.46;101672.38;5022341;28;20029;-77
2022/03/21 11:41:28;;;;;;;15.85;4.72;;;;;;;16.50;41.30;101673.34;5038850;28;20029;-78
2022/03/21 11:44:05;;;;;;;9.40;4.18;;;;;;;16.42;41.24;101670.06;5041095;28;20030;-79
2022/03/21 11:46:31;;;;;;;10.65;5.28;;;;;;;16.44;41.08;101668.78;5042522;28;20040;-80